createdAt,value
2023-05-15T00:00:45.599Z,17.06
2023-05-15T00:01:48.319Z,17.05
2023-05-15T00:02:50.878Z,16.93
2023-05-15T00:03:54.427Z,16.89
2023-05-15T00:04:56.667Z,16.81
2023-05-15T00:05:59.283Z,16.77
2023-05-15T00:07:01.588Z,16.71
2023-05-15T00:08:04.283Z,16.64
2023-05-15T00:09:06.780Z,16.62
2023-05-15T00:10:10.031Z,16.59
2023-05-15T00:11:12.293Z,16.55
2023-05-15T00:12:15.763Z,16.51
2023-05-15T00:13:18.523Z,16.51
2023-05-15T00:14:20.730Z,16.51
2023-05-15T00:15:22.937Z,16.49
2023-05-15T00:16:25.572Z,16.47
2023-05-15T00:17:27.941Z,16.53
2023-05-15T00:18:30.377Z,16.53
2023-05-15T00:19:33.080Z,16.52
2023-05-15T00:20:35.654Z,16.54
2023-05-15T00:21:37.862Z,16.55
2023-05-15T00:22:40.272Z,16.53
2023-05-15T00:23:42.584Z,16.53
2023-05-15T00:24:44.584Z,16.56
2023-05-15T00:25:46.880Z,16.57
2023-05-15T00:26:49.171Z,16.54
2023-05-15T00:27:51.411Z,16.57
2023-05-15T00:28:53.421Z,16.63
2023-05-15T00:29:55.325Z,16.64
2023-05-15T00:30:57.771Z,16.61
2023-05-15T00:32:01.217Z,16.57
2023-05-15T00:33:03.405Z,16.53
2023-05-15T00:34:06.597Z,16.50
2023-05-15T00:35:09.068Z,16.41
2023-05-15T00:36:12.043Z,16.37
2023-05-15T00:37:14.283Z,16.38
2023-05-15T00:38:16.372Z,16.34
2023-05-15T00:39:20.254Z,16.30
2023-05-15T00:40:25.851Z,16.33
2023-05-15T00:41:31.669Z,16.32
2023-05-15T00:42:34.480Z,16.31
2023-05-15T00:43:39.967Z,16.26
2023-05-15T00:44:43.639Z,16.20
2023-05-15T00:45:47.909Z,16.17
2023-05-15T00:46:52.816Z,16.15
2023-05-15T00:47:57.327Z,16.18
2023-05-15T00:49:00.779Z,16.19
2023-05-15T00:50:03.921Z,16.20
2023-05-15T00:51:07.639Z,16.30
2023-05-15T00:52:10.835Z,16.33
2023-05-15T00:53:13.391Z,16.32
2023-05-15T00:54:15.841Z,16.31
2023-05-15T00:55:18.232Z,16.29
2023-05-15T00:56:21.149Z,16.29
2023-05-15T00:57:24.739Z,16.27
2023-05-15T00:58:28.198Z,16.29
2023-05-15T00:59:32.170Z,16.25
2023-05-15T01:00:35.561Z,16.23
2023-05-15T01:01:39.639Z,16.15
2023-05-15T01:02:42.010Z,16.15
2023-05-15T01:03:45.729Z,16.10
2023-05-15T01:04:49.420Z,16.10
2023-05-15T01:05:51.682Z,16.10
2023-05-15T01:06:54.205Z,16.07
2023-05-15T01:08:03.419Z,16.08
2023-05-15T01:09:10.137Z,16.03
2023-05-15T01:10:14.094Z,16.07
2023-05-15T01:11:17.381Z,16.04
2023-05-15T01:12:24.776Z,16.04
2023-05-15T01:13:28.337Z,16.03
2023-05-15T01:14:30.356Z,16.02
2023-05-15T01:15:32.569Z,15.98
2023-05-15T01:16:38.102Z,15.95
2023-05-15T01:17:40.415Z,15.94
2023-05-15T01:18:42.864Z,15.98
2023-05-15T01:19:48.451Z,15.98
2023-05-15T01:21:00.546Z,16.00
2023-05-15T01:22:23.188Z,16.04
2023-05-15T01:23:44.943Z,16.05
2023-05-15T01:25:15.426Z,16.04
2023-05-15T01:26:25.496Z,16.00
2023-05-15T01:27:46.726Z,15.97
2023-05-15T01:28:53.499Z,15.90
2023-05-15T01:30:11.337Z,15.86
2023-05-15T01:31:17.235Z,15.90
2023-05-15T01:32:38.641Z,15.95
2023-05-15T01:33:45.406Z,15.96
2023-05-15T01:35:10.859Z,15.95
2023-05-15T01:36:28.598Z,15.92
2023-05-15T01:37:35.614Z,15.96
2023-05-15T01:38:47.688Z,15.92
2023-05-15T01:39:53.879Z,15.95
2023-05-15T01:41:15.905Z,16.00
2023-05-15T01:42:20.115Z,15.99
2023-05-15T01:43:27.727Z,15.97
2023-05-15T01:44:34.685Z,15.93
2023-05-15T01:45:38.961Z,15.92
2023-05-15T01:46:45.048Z,15.94
2023-05-15T01:47:49.073Z,15.96
2023-05-15T01:48:52.090Z,15.99
2023-05-15T01:49:56.962Z,15.98
2023-05-15T01:51:02.982Z,15.98
2023-05-15T01:52:11.813Z,15.94
2023-05-15T01:53:14.874Z,15.96
2023-05-15T01:54:18.522Z,15.98
2023-05-15T01:55:23.772Z,15.97
2023-05-15T01:56:28.043Z,15.99
2023-05-15T01:57:31.456Z,15.99
2023-05-15T01:58:35.723Z,15.92
2023-05-15T01:59:39.845Z,15.92
2023-05-15T02:00:44.883Z,15.95
2023-05-15T02:01:47.869Z,15.95
2023-05-15T02:02:50.984Z,15.94
2023-05-15T02:03:55.492Z,15.92
2023-05-15T02:04:59.200Z,15.92
2023-05-15T02:06:03.012Z,15.89
2023-05-15T02:07:06.695Z,15.84
2023-05-15T02:08:12.295Z,15.72
2023-05-15T02:09:15.035Z,15.67
2023-05-15T02:10:19.032Z,15.68
2023-05-15T02:11:22.422Z,15.69
2023-05-15T02:12:27.112Z,15.73
2023-05-15T02:13:31.484Z,15.75
2023-05-15T02:14:36.992Z,15.75
2023-05-15T02:15:39.466Z,15.75
2023-05-15T02:16:42.793Z,15.79
2023-05-15T02:17:45.328Z,15.81
2023-05-15T02:18:48.937Z,15.85
2023-05-15T02:19:51.336Z,15.87
2023-05-15T02:20:53.841Z,15.87
2023-05-15T02:21:55.981Z,15.86
2023-05-15T02:22:58.213Z,15.85
2023-05-15T02:24:00.638Z,15.81
2023-05-15T02:25:03.388Z,15.84
2023-05-15T02:26:21.693Z,15.79
2023-05-15T02:27:29.632Z,15.74
2023-05-15T02:28:36.495Z,15.67
2023-05-15T02:29:57.546Z,15.67
2023-05-15T02:31:03.476Z,15.62
2023-05-15T02:32:22.994Z,15.65
2023-05-15T02:33:48.441Z,15.62
2023-05-15T02:34:56.079Z,15.61
2023-05-15T02:36:14.238Z,15.54
2023-05-15T02:37:20.619Z,15.53
2023-05-15T02:38:35.380Z,15.56
2023-05-15T02:39:40.037Z,15.57
2023-05-15T02:40:45.544Z,15.57
2023-05-15T02:41:48.888Z,15.60
2023-05-15T02:42:53.760Z,15.63
2023-05-15T02:43:56.759Z,15.65
2023-05-15T02:45:01.070Z,15.70
2023-05-15T02:46:07.297Z,15.69
2023-05-15T02:47:10.758Z,15.70
2023-05-15T02:48:16.255Z,15.68
2023-05-15T02:49:19.043Z,15.68
2023-05-15T02:50:22.209Z,15.73
2023-05-15T02:51:25.274Z,15.71
2023-05-15T02:52:27.864Z,15.75
2023-05-15T02:53:31.403Z,15.77
2023-05-15T02:54:33.783Z,15.81
2023-05-15T02:55:38.144Z,15.83
2023-05-15T02:56:40.377Z,15.80
2023-05-15T02:57:42.701Z,15.84
2023-05-15T02:58:45.973Z,15.88
2023-05-15T02:59:48.958Z,15.93
2023-05-15T03:00:51.363Z,15.96
2023-05-15T03:01:53.557Z,15.98
2023-05-15T03:02:55.811Z,15.97
2023-05-15T03:03:58.308Z,16.00
2023-05-15T03:05:00.785Z,16.04
2023-05-15T03:06:03.161Z,16.06
2023-05-15T03:07:05.339Z,16.04
2023-05-15T03:08:07.539Z,16.04
2023-05-15T03:09:09.765Z,16.07
2023-05-15T03:10:14.927Z,16.09
2023-05-15T03:11:18.677Z,16.11
2023-05-15T03:12:20.715Z,16.10
2023-05-15T03:13:22.722Z,16.09
2023-05-15T03:14:25.033Z,16.08
2023-05-15T03:15:27.482Z,16.07
2023-05-15T03:16:30.009Z,16.08
2023-05-15T03:17:32.390Z,16.07
2023-05-15T03:18:34.760Z,16.04
2023-05-15T03:19:37.106Z,15.95
2023-05-15T03:20:40.488Z,15.93
2023-05-15T03:21:42.749Z,15.93
2023-05-15T03:22:45.171Z,15.92
2023-05-15T03:23:47.208Z,15.87
2023-05-15T03:24:49.644Z,15.86
2023-05-15T03:25:52.535Z,15.85
2023-05-15T03:26:54.620Z,15.83
2023-05-15T03:27:56.865Z,15.84
2023-05-15T03:29:00.780Z,15.86
2023-05-15T03:30:04.414Z,15.89
2023-05-15T03:31:08.010Z,15.89
2023-05-15T03:32:11.476Z,15.92
2023-05-15T03:33:14.784Z,15.95
2023-05-15T03:34:17.170Z,15.97
2023-05-15T03:35:19.268Z,15.96
2023-05-15T03:36:21.974Z,16.00
2023-05-15T03:37:24.945Z,16.00
2023-05-15T03:38:27.047Z,16.00
2023-05-15T03:39:29.556Z,16.03
2023-05-15T03:40:32.914Z,16.07
2023-05-15T03:41:36.225Z,16.09
2023-05-15T03:42:38.288Z,16.14
2023-05-15T03:43:40.615Z,16.15
2023-05-15T03:44:42.709Z,16.21
2023-05-15T03:45:44.741Z,16.27
2023-05-15T03:46:47.894Z,16.30
2023-05-15T03:47:50.328Z,16.35
2023-05-15T03:48:54.318Z,16.40
2023-05-15T03:49:56.644Z,16.44
2023-05-15T03:50:59.926Z,16.43
2023-05-15T03:52:02.294Z,16.46
2023-05-15T03:53:04.600Z,16.49
2023-05-15T03:54:06.956Z,16.51
2023-05-15T03:55:09.430Z,16.52
2023-05-15T03:56:12.020Z,16.55
2023-05-15T03:57:14.261Z,16.58
2023-05-15T03:58:16.985Z,16.61
2023-05-15T03:59:19.360Z,16.62
2023-05-15T04:00:23.734Z,16.63
2023-05-15T04:01:26.346Z,16.68
2023-05-15T04:02:29.739Z,16.68
2023-05-15T04:03:33.008Z,16.68
2023-05-15T04:04:35.339Z,16.68
2023-05-15T04:05:37.717Z,16.68
2023-05-15T04:06:40.246Z,16.66
2023-05-15T04:07:42.564Z,16.70
2023-05-15T04:08:44.756Z,16.73
2023-05-15T04:09:46.893Z,16.73
2023-05-15T04:10:49.118Z,16.72
2023-05-15T04:11:51.439Z,16.73
2023-05-15T04:12:53.773Z,16.72
2023-05-15T04:13:56.000Z,16.74
2023-05-15T04:15:01.203Z,16.74
2023-05-15T04:16:04.514Z,16.75
2023-05-15T04:17:06.723Z,16.75
2023-05-15T04:18:10.073Z,16.76
2023-05-15T04:19:12.998Z,16.77
2023-05-15T04:20:18.332Z,16.77
2023-05-15T04:21:21.030Z,16.79
2023-05-15T04:22:23.443Z,16.77
2023-05-15T04:23:27.000Z,16.76
2023-05-15T04:24:29.246Z,16.77
2023-05-15T04:25:32.305Z,16.81
2023-05-15T04:26:34.845Z,16.82
2023-05-15T04:27:37.818Z,16.82
2023-05-15T04:28:52.437Z,16.87
2023-05-15T04:29:45.971Z,16.89
2023-05-15T04:30:48.400Z,16.90
2023-05-15T04:31:50.822Z,16.91
2023-05-15T04:32:52.991Z,16.92
2023-05-15T04:33:56.334Z,16.93
2023-05-15T04:34:59.184Z,16.94
2023-05-15T04:36:01.390Z,16.97
2023-05-15T04:37:04.360Z,16.97
2023-05-15T04:38:06.730Z,16.98
2023-05-15T04:39:09.567Z,17.00
2023-05-15T04:40:14.240Z,17.00
2023-05-15T04:41:16.285Z,17.02
2023-05-15T04:42:18.384Z,17.02
2023-05-15T04:43:20.799Z,17.04
2023-05-15T04:44:24.948Z,17.03
2023-05-15T04:45:27.299Z,16.98
2023-05-15T04:46:29.873Z,16.98
2023-05-15T04:47:32.506Z,17.01
2023-05-15T04:48:34.656Z,17.03
2023-05-15T04:49:37.139Z,17.03
2023-05-15T04:50:40.272Z,17.03
2023-05-15T04:51:42.776Z,17.05
2023-05-15T04:52:45.186Z,17.04
2023-05-15T04:53:47.303Z,17.04
2023-05-15T04:54:50.515Z,17.05
2023-05-15T04:55:53.103Z,17.07
2023-05-15T04:56:55.599Z,17.07
2023-05-15T04:57:58.110Z,17.05
2023-05-15T04:59:00.620Z,17.04
2023-05-15T05:00:05.607Z,17.04
2023-05-15T05:01:08.091Z,17.07
2023-05-15T05:02:10.586Z,17.09
2023-05-15T05:03:12.742Z,17.08
2023-05-15T05:04:16.895Z,17.08
2023-05-15T05:05:20.087Z,17.11
2023-05-15T05:06:24.099Z,17.14
2023-05-15T05:07:26.424Z,17.17
2023-05-15T05:08:28.425Z,17.21
2023-05-15T05:09:31.136Z,17.24
2023-05-15T05:10:36.169Z,17.28
2023-05-15T05:11:44.485Z,17.29
2023-05-15T05:12:46.627Z,17.34
2023-05-15T05:13:49.553Z,17.37
2023-05-15T05:14:51.733Z,17.39
2023-05-15T05:15:53.977Z,17.38
2023-05-15T05:16:56.363Z,17.38
2023-05-15T05:17:58.696Z,17.45
2023-05-15T05:19:01.476Z,17.50
2023-05-15T05:20:04.485Z,17.52
2023-05-15T05:21:07.383Z,17.59
2023-05-15T05:22:10.377Z,17.59
2023-05-15T05:23:14.778Z,17.63
2023-05-15T05:24:16.986Z,17.64
2023-05-15T05:25:19.386Z,17.66
2023-05-15T05:26:22.417Z,17.69
2023-05-15T05:27:24.643Z,17.73
2023-05-15T05:28:27.861Z,17.79
2023-05-15T05:29:31.046Z,17.85
2023-05-15T05:30:33.739Z,17.88
2023-05-15T05:31:36.058Z,17.93
2023-05-15T05:32:38.570Z,17.96
2023-05-15T05:33:40.847Z,18.00
2023-05-15T05:34:43.084Z,18.04
2023-05-15T05:35:45.413Z,18.09
2023-05-15T05:36:48.656Z,18.09
2023-05-15T05:37:52.146Z,18.10
2023-05-15T05:38:55.126Z,18.11
2023-05-15T05:39:57.340Z,18.15
2023-05-15T05:41:00.855Z,18.18
2023-05-15T05:42:04.285Z,18.22
2023-05-15T05:43:06.482Z,18.26
2023-05-15T05:44:08.598Z,18.28
2023-05-15T05:45:11.299Z,18.29
2023-05-15T05:46:13.682Z,18.32
2023-05-15T05:47:15.971Z,18.34
2023-05-15T05:48:18.499Z,18.37
2023-05-15T05:49:20.744Z,18.42
2023-05-15T05:50:23.767Z,18.44
2023-05-15T05:51:25.935Z,18.47
2023-05-15T05:52:29.955Z,18.50
2023-05-15T05:53:32.259Z,18.51
2023-05-15T05:54:34.394Z,18.55
2023-05-15T05:55:36.715Z,18.53
2023-05-15T05:56:39.035Z,18.55
2023-05-15T05:57:41.376Z,18.59
2023-05-15T05:58:43.698Z,18.60
2023-05-15T05:59:46.025Z,18.61
2023-05-15T06:00:49.117Z,18.63
2023-05-15T06:01:51.406Z,18.70
2023-05-15T06:02:57.874Z,18.73
2023-05-15T06:04:01.780Z,18.77
2023-05-15T06:05:06.719Z,18.80
2023-05-15T06:06:09.182Z,18.79
2023-05-15T06:07:11.848Z,18.81
2023-05-15T06:08:14.655Z,18.85
2023-05-15T06:09:17.377Z,18.88
2023-05-15T06:10:20.270Z,18.91
2023-05-15T06:11:24.968Z,18.92
2023-05-15T06:12:27.409Z,18.97
2023-05-15T06:13:30.696Z,19.03
2023-05-15T06:14:32.959Z,19.05
2023-05-15T06:15:35.415Z,19.08
2023-05-15T06:16:37.545Z,19.10
2023-05-15T06:17:40.681Z,19.14
2023-05-15T06:18:42.949Z,19.18
2023-05-15T06:19:46.109Z,19.19
2023-05-15T06:20:48.574Z,19.24
2023-05-15T06:21:50.691Z,19.28
2023-05-15T06:22:52.898Z,19.33
2023-05-15T06:23:55.000Z,19.36
2023-05-15T06:24:57.015Z,19.40
2023-05-15T06:26:00.169Z,19.41
2023-05-15T06:27:03.353Z,19.40
2023-05-15T06:28:05.402Z,19.39
2023-05-15T06:29:07.505Z,19.40
2023-05-15T06:30:11.170Z,19.41
2023-05-15T06:31:13.716Z,19.46
2023-05-15T06:32:15.891Z,19.52
2023-05-15T06:33:18.512Z,19.52
2023-05-15T06:34:20.759Z,19.56
2023-05-15T06:35:26.418Z,19.58
2023-05-15T06:36:29.476Z,19.61
2023-05-15T06:37:31.744Z,19.64
2023-05-15T06:38:33.967Z,19.68
2023-05-15T06:39:37.118Z,19.70
2023-05-15T06:40:40.270Z,19.75
2023-05-15T06:41:42.651Z,19.77
2023-05-15T06:42:46.692Z,19.80
2023-05-15T06:43:48.908Z,19.82
2023-05-15T06:44:51.116Z,19.85
2023-05-15T06:45:53.363Z,19.86
2023-05-15T06:46:56.031Z,19.88
2023-05-15T06:48:01.395Z,19.90
2023-05-15T06:49:02.340Z,19.92
2023-05-15T06:50:07.105Z,19.95
2023-05-15T06:51:09.271Z,19.98
2023-05-15T06:52:11.489Z,20.01
2023-05-15T06:53:14.615Z,20.06
2023-05-15T06:54:18.495Z,20.13
2023-05-15T06:55:20.776Z,20.16
2023-05-15T06:56:23.512Z,20.20
2023-05-15T06:57:26.268Z,20.17
2023-05-15T06:58:28.402Z,20.19
2023-05-15T06:59:32.485Z,20.21
2023-05-15T07:00:35.637Z,20.22
2023-05-15T07:01:37.969Z,20.22
2023-05-15T07:02:40.579Z,20.26
2023-05-15T07:03:42.837Z,20.29
2023-05-15T07:04:45.153Z,20.31
2023-05-15T07:05:48.389Z,20.36
2023-05-15T07:06:50.656Z,20.40
2023-05-15T07:07:52.767Z,20.43
2023-05-15T07:08:56.195Z,20.49
2023-05-15T07:09:59.873Z,20.52
2023-05-15T07:11:02.298Z,20.54
2023-05-15T07:12:05.777Z,20.55
2023-05-15T07:13:08.168Z,20.66
2023-05-15T07:14:10.479Z,20.66
2023-05-15T07:15:13.201Z,20.69
2023-05-15T07:16:15.807Z,20.72
2023-05-15T07:17:18.747Z,20.73
2023-05-15T07:18:21.188Z,20.72
2023-05-15T07:19:26.829Z,20.76
2023-05-15T07:20:32.300Z,20.72
2023-05-15T07:21:33.844Z,20.73
2023-05-15T07:22:44.640Z,20.77
2023-05-15T07:23:40.439Z,20.80
2023-05-15T07:24:42.552Z,20.80
2023-05-15T07:25:46.209Z,20.85
2023-05-15T07:26:58.016Z,20.85
2023-05-15T07:27:53.618Z,20.88
2023-05-15T07:28:55.886Z,20.90
2023-05-15T07:29:58.122Z,20.90
2023-05-15T07:31:02.746Z,20.95
2023-05-15T07:32:05.218Z,21.00
2023-05-15T07:33:08.716Z,21.07
2023-05-15T07:34:11.472Z,21.14
2023-05-15T07:35:13.729Z,21.20
2023-05-15T07:36:16.093Z,21.25
2023-05-15T07:37:19.254Z,21.30
2023-05-15T07:38:21.615Z,21.29
2023-05-15T07:39:23.986Z,21.34
2023-05-15T07:40:27.498Z,21.36
2023-05-15T07:41:31.932Z,21.35
2023-05-15T07:42:34.568Z,21.34
2023-05-15T07:43:37.019Z,21.36
2023-05-15T07:44:41.344Z,21.35
2023-05-15T07:45:46.741Z,21.38
2023-05-15T07:46:49.265Z,21.40
2023-05-15T07:47:51.619Z,21.44
2023-05-15T07:48:54.125Z,21.46
2023-05-15T07:49:57.462Z,21.56
2023-05-15T07:51:01.163Z,21.56
2023-05-15T07:52:04.550Z,21.58
2023-05-15T07:53:06.571Z,21.58
2023-05-15T07:54:08.783Z,21.63
2023-05-15T07:55:11.976Z,21.69
2023-05-15T07:56:17.398Z,21.73
2023-05-15T07:57:20.208Z,21.78
2023-05-15T07:58:22.757Z,21.81
2023-05-15T07:59:27.573Z,21.85
2023-05-15T08:00:30.343Z,21.85
2023-05-15T08:01:33.063Z,21.83
2023-05-15T08:02:35.715Z,21.85
2023-05-15T08:03:38.143Z,21.83
2023-05-15T08:04:41.126Z,21.89
2023-05-15T08:05:43.807Z,21.91
2023-05-15T08:06:46.280Z,21.91
2023-05-15T08:07:51.572Z,21.96
2023-05-15T08:08:54.069Z,22.02
2023-05-15T08:09:56.308Z,22.06
2023-05-15T08:10:59.490Z,22.10
2023-05-15T08:12:21.264Z,22.11
2023-05-15T08:13:23.808Z,22.10
2023-05-15T08:14:26.225Z,22.14
2023-05-15T08:15:28.909Z,22.20
2023-05-15T08:16:31.850Z,22.16
2023-05-15T08:17:34.273Z,22.20
2023-05-15T08:18:36.943Z,22.28
2023-05-15T08:19:39.205Z,22.33
2023-05-15T08:20:41.665Z,22.34
2023-05-15T08:21:43.877Z,22.38
2023-05-15T08:22:45.997Z,22.43
2023-05-15T08:23:48.253Z,22.45
2023-05-15T08:24:50.467Z,22.48
2023-05-15T08:25:52.695Z,22.51
2023-05-15T08:26:55.323Z,22.55
2023-05-15T08:27:57.656Z,22.59
2023-05-15T08:28:59.976Z,22.61
2023-05-15T08:30:03.517Z,22.63
2023-05-15T08:31:06.008Z,22.67
2023-05-15T08:32:09.909Z,22.66
2023-05-15T08:33:12.393Z,22.52
2023-05-15T08:34:14.809Z,22.54
2023-05-15T08:35:17.066Z,22.59
2023-05-15T08:36:21.084Z,22.61
2023-05-15T08:37:23.764Z,22.67
2023-05-15T08:38:25.991Z,22.66
2023-05-15T08:39:28.305Z,22.67
2023-05-15T08:40:38.928Z,22.68
2023-05-15T08:41:41.093Z,22.72
2023-05-15T08:42:47.031Z,22.81
2023-05-15T08:43:53.199Z,22.84
2023-05-15T08:44:56.088Z,22.88
2023-05-15T08:46:00.380Z,22.95
2023-05-15T08:47:04.807Z,23.00
2023-05-15T08:48:13.695Z,23.03
2023-05-15T08:49:35.215Z,23.03
2023-05-15T08:50:40.387Z,23.07
2023-05-15T08:51:42.738Z,23.05
2023-05-15T08:52:47.852Z,23.11
2023-05-15T08:53:50.914Z,23.14
2023-05-15T08:54:53.785Z,23.17
2023-05-15T08:55:56.798Z,23.19
2023-05-15T08:57:01.986Z,23.16
2023-05-15T08:58:04.594Z,23.16
2023-05-15T08:59:07.432Z,23.17
2023-05-15T09:00:14.414Z,23.14
2023-05-15T09:01:17.145Z,23.13
2023-05-15T09:02:21.298Z,23.23
2023-05-15T09:03:24.567Z,23.31
2023-05-15T09:04:27.565Z,23.32
2023-05-15T09:05:31.398Z,23.36
2023-05-15T09:06:34.202Z,23.43
2023-05-15T09:07:38.316Z,23.40
2023-05-15T09:08:43.011Z,23.43
2023-05-15T09:09:46.060Z,23.47
2023-05-15T09:10:49.604Z,23.50
2023-05-15T09:11:53.133Z,23.55
2023-05-15T09:12:57.392Z,23.54
2023-05-15T09:14:00.333Z,23.63
2023-05-15T09:15:12.928Z,23.71
2023-05-15T09:16:16.322Z,23.75
2023-05-15T09:17:18.635Z,23.78
2023-05-15T09:18:22.198Z,23.87
2023-05-15T09:19:24.477Z,23.91
2023-05-15T09:20:30.268Z,23.98
2023-05-15T09:21:35.493Z,23.81
2023-05-15T09:22:37.690Z,23.69
2023-05-15T09:23:40.484Z,23.55
2023-05-15T09:24:45.007Z,23.50
2023-05-15T09:25:49.680Z,23.51
2023-05-15T09:27:03.572Z,23.43
2023-05-15T09:28:12.552Z,23.48
2023-05-15T09:29:18.910Z,23.60
2023-05-15T09:30:22.364Z,23.66
2023-05-15T09:31:27.077Z,23.79
2023-05-15T09:32:30.650Z,23.85
2023-05-15T09:33:35.418Z,23.95
2023-05-15T09:34:39.863Z,24.05
2023-05-15T09:35:42.119Z,24.13
2023-05-15T09:36:45.020Z,24.21
2023-05-15T09:37:51.109Z,24.24
2023-05-15T09:38:58.564Z,24.27
2023-05-15T09:40:08.960Z,24.23
2023-05-15T09:41:10.994Z,24.07
2023-05-15T09:42:16.442Z,23.84
2023-05-15T09:43:18.574Z,23.79
2023-05-15T09:44:26.877Z,23.79
2023-05-15T09:45:30.584Z,23.77
2023-05-15T09:46:36.022Z,23.66
2023-05-15T09:47:38.517Z,23.69
2023-05-15T09:48:41.485Z,23.73
2023-05-15T09:49:45.001Z,23.87
2023-05-15T09:50:48.040Z,23.95
2023-05-15T09:51:50.836Z,24.09
2023-05-15T09:52:53.770Z,24.27
2023-05-15T09:53:56.476Z,24.27
2023-05-15T09:54:58.819Z,24.58
2023-05-15T09:56:03.055Z,24.73
2023-05-15T09:57:13.786Z,24.87
2023-05-15T09:58:19.257Z,24.98
2023-05-15T09:59:21.814Z,25.14
2023-05-15T10:00:25.950Z,25.26
2023-05-15T10:01:30.552Z,25.40
2023-05-15T10:02:34.127Z,25.55
2023-05-15T10:03:36.422Z,25.53
2023-05-15T10:04:41.106Z,25.51
2023-05-15T10:05:44.907Z,25.61
2023-05-15T10:06:48.432Z,25.40
2023-05-15T10:07:54.962Z,25.32
2023-05-15T10:08:57.916Z,25.36
2023-05-15T10:10:05.302Z,25.18
2023-05-15T10:11:08.417Z,25.09
2023-05-15T10:12:12.342Z,25.15
2023-05-15T10:13:15.043Z,25.14
2023-05-15T10:14:19.655Z,25.13
2023-05-15T10:15:23.035Z,25.23
2023-05-15T10:16:27.481Z,25.39
2023-05-15T10:17:33.379Z,25.54
2023-05-15T10:18:38.741Z,25.66
2023-05-15T10:19:56.675Z,25.68
2023-05-15T10:20:48.292Z,25.68
2023-05-15T10:21:53.320Z,25.83
2023-05-15T10:22:56.385Z,25.96
2023-05-15T10:24:01.380Z,26.15
2023-05-15T10:25:27.196Z,26.36
2023-05-15T10:26:37.847Z,26.49
2023-05-15T10:27:41.224Z,26.55
2023-05-15T10:28:46.782Z,26.71
2023-05-15T10:29:51.050Z,26.76
2023-05-15T10:30:55.514Z,26.81
2023-05-15T10:32:01.641Z,26.85
2023-05-15T10:33:05.310Z,26.82
2023-05-15T10:34:10.660Z,26.88
2023-05-15T10:35:12.993Z,26.74
2023-05-15T10:36:17.564Z,26.58
2023-05-15T10:37:21.346Z,26.43
2023-05-15T10:38:25.913Z,26.30
2023-05-15T10:39:28.761Z,26.13
2023-05-15T10:40:34.155Z,26.11
2023-05-15T10:41:38.300Z,26.04
2023-05-15T10:42:44.470Z,26.01
2023-05-15T10:43:48.312Z,25.93
2023-05-15T10:44:52.353Z,25.94
2023-05-15T10:45:56.608Z,26.01
2023-05-15T10:46:59.562Z,26.02
2023-05-15T10:48:05.159Z,25.97
2023-05-15T10:49:08.062Z,25.94
2023-05-15T10:50:14.106Z,25.87
2023-05-15T10:51:18.578Z,25.81
2023-05-15T10:52:22.267Z,25.90
2023-05-15T10:53:25.845Z,25.98
2023-05-15T10:54:30.146Z,26.15
2023-05-15T10:55:32.592Z,26.27
2023-05-15T10:56:37.477Z,26.29
2023-05-15T10:57:40.372Z,26.25
2023-05-15T10:58:50.541Z,26.37
2023-05-15T10:59:53.793Z,26.61
2023-05-15T11:00:56.647Z,26.68
2023-05-15T11:02:05.794Z,26.79
2023-05-15T11:03:08.137Z,26.82
2023-05-15T11:04:16.133Z,26.77
2023-05-15T11:05:19.048Z,26.71
2023-05-15T11:06:24.963Z,26.60
2023-05-15T11:07:27.762Z,26.47
2023-05-15T11:08:30.722Z,26.30
2023-05-15T11:09:34.784Z,26.20
2023-05-15T11:10:38.813Z,26.22
2023-05-15T11:11:59.715Z,26.52
2023-05-15T11:13:02.370Z,26.52
2023-05-15T11:14:08.243Z,26.72
2023-05-15T11:15:14.111Z,26.95
2023-05-15T11:16:24.375Z,27.07
2023-05-15T11:17:27.808Z,27.29
2023-05-15T11:18:30.616Z,27.41
2023-05-15T11:19:55.627Z,27.62
2023-05-15T11:21:01.645Z,27.68
2023-05-15T11:22:31.950Z,27.65
2023-05-15T11:23:41.420Z,27.72
2023-05-15T11:24:55.177Z,27.61
2023-05-15T11:25:58.545Z,27.42
2023-05-15T11:27:04.747Z,27.37
2023-05-15T11:28:10.570Z,27.13
2023-05-15T11:29:19.476Z,27.23
2023-05-15T11:30:24.697Z,27.19
2023-05-15T11:31:32.618Z,27.26
2023-05-15T11:33:09.282Z,27.50
2023-05-15T11:34:11.522Z,27.65
2023-05-15T11:35:37.991Z,27.68
2023-05-15T11:36:43.067Z,27.67
2023-05-15T11:37:51.401Z,27.61
2023-05-15T11:38:55.819Z,27.55
2023-05-15T11:39:58.748Z,27.43
2023-05-15T11:41:03.428Z,27.55
2023-05-15T11:42:12.793Z,27.49
2023-05-15T11:43:25.065Z,27.53
2023-05-15T11:44:31.057Z,27.57
2023-05-15T11:45:37.715Z,27.69
2023-05-15T11:46:42.939Z,27.81
2023-05-15T11:47:45.925Z,27.88
2023-05-15T11:48:50.705Z,27.99
2023-05-15T11:49:53.579Z,28.13
2023-05-15T11:50:57.653Z,28.18
2023-05-15T11:52:00.960Z,28.26
2023-05-15T11:53:06.212Z,28.00
2023-05-15T11:54:13.014Z,28.04
2023-05-15T11:55:17.653Z,28.04
2023-05-15T11:56:22.423Z,28.12
2023-05-15T11:57:25.877Z,27.92
2023-05-15T11:58:29.361Z,27.98
2023-05-15T11:59:33.310Z,27.99
2023-05-15T12:00:35.581Z,27.86
2023-05-15T12:01:42.771Z,27.88
2023-05-15T12:02:45.138Z,27.72
2023-05-15T12:03:49.272Z,27.65
2023-05-15T12:04:51.868Z,27.50
2023-05-15T12:05:59.524Z,27.68
2023-05-15T12:07:02.999Z,27.89
2023-05-15T12:08:11.639Z,27.92
2023-05-15T12:09:19.650Z,27.67
2023-05-15T12:10:27.539Z,27.42
2023-05-15T12:11:31.628Z,26.98
2023-05-15T12:12:36.594Z,26.80
2023-05-15T12:13:38.952Z,26.57
2023-05-15T12:14:41.163Z,26.57
2023-05-15T12:15:45.354Z,26.52
2023-05-15T12:16:51.937Z,26.48
2023-05-15T12:17:56.640Z,26.41
2023-05-15T12:19:00.015Z,26.51
2023-05-15T12:20:04.133Z,26.77
2023-05-15T12:21:06.639Z,27.05
2023-05-15T12:22:09.956Z,27.40
2023-05-15T12:23:17.582Z,27.66
2023-05-15T12:24:20.998Z,27.90
2023-05-15T12:25:23.697Z,28.00
2023-05-15T12:26:28.851Z,27.98
2023-05-15T12:27:33.106Z,27.84
2023-05-15T12:28:35.936Z,27.90
2023-05-15T12:29:40.429Z,28.01
2023-05-15T12:30:43.456Z,28.06
2023-05-15T12:31:47.594Z,28.03
2023-05-15T12:32:50.448Z,28.02
2023-05-15T12:33:55.949Z,27.92
2023-05-15T12:34:59.606Z,27.79
2023-05-15T12:36:02.423Z,27.59
2023-05-15T12:37:05.267Z,27.11
2023-05-15T12:38:08.397Z,27.04
2023-05-15T12:39:11.135Z,27.00
2023-05-15T12:40:15.113Z,27.12
2023-05-15T12:41:20.431Z,27.13
2023-05-15T12:42:23.695Z,27.11
2023-05-15T12:43:26.158Z,27.14
2023-05-15T12:44:29.226Z,27.06
2023-05-15T12:45:36.218Z,27.08
2023-05-15T12:46:40.568Z,27.20
2023-05-15T12:47:44.651Z,27.28
2023-05-15T12:48:47.292Z,27.35
2023-05-15T12:49:49.990Z,27.41
2023-05-15T12:50:52.535Z,27.56
2023-05-15T12:51:54.972Z,27.76
2023-05-15T12:52:59.225Z,27.74
2023-05-15T12:54:01.615Z,27.84
2023-05-15T12:55:04.596Z,28.09
2023-05-15T12:56:08.849Z,28.39
2023-05-15T12:57:12.113Z,28.43
2023-05-15T12:58:17.488Z,28.20
2023-05-15T12:59:19.669Z,27.81
2023-05-15T13:00:22.762Z,27.69
2023-05-15T13:01:28.210Z,28.03
2023-05-15T13:02:30.784Z,28.17
2023-05-15T13:03:34.525Z,28.30
2023-05-15T13:04:37.343Z,28.41
2023-05-15T13:05:43.229Z,28.25
2023-05-15T13:06:47.402Z,27.95
2023-05-15T13:07:52.471Z,27.68
2023-05-15T13:08:54.821Z,27.87
2023-05-15T13:10:07.710Z,28.23
2023-05-15T13:11:14.655Z,28.11
2023-05-15T13:12:19.542Z,28.20
2023-05-15T13:13:22.009Z,28.18
2023-05-15T13:14:26.204Z,27.95
2023-05-15T13:15:37.952Z,27.65
2023-05-15T13:16:43.013Z,27.84
2023-05-15T13:17:45.398Z,28.18
2023-05-15T13:18:47.743Z,28.52
2023-05-15T13:19:50.200Z,28.72
2023-05-15T13:20:53.127Z,28.82
2023-05-15T13:21:55.545Z,29.06
2023-05-15T13:22:57.669Z,29.16
2023-05-15T13:23:59.895Z,28.98
2023-05-15T13:25:02.354Z,29.08
2023-05-15T13:26:05.039Z,29.23
2023-05-15T13:27:08.058Z,29.23
2023-05-15T13:28:11.324Z,29.27
2023-05-15T13:29:14.079Z,29.21
2023-05-15T13:30:17.751Z,29.55
2023-05-15T13:31:20.071Z,29.76
2023-05-15T13:32:22.429Z,29.75
2023-05-15T13:33:26.005Z,29.92
2023-05-15T13:34:28.519Z,30.09
2023-05-15T13:35:30.869Z,30.41
2023-05-15T13:36:33.668Z,30.63
2023-05-15T13:37:37.023Z,30.87
2023-05-15T13:38:39.717Z,31.09
2023-05-15T13:39:42.382Z,31.06
2023-05-15T13:40:44.891Z,30.97
2023-05-15T13:41:47.327Z,30.61
2023-05-15T13:42:50.091Z,30.11
2023-05-15T13:43:52.132Z,29.63
2023-05-15T13:44:55.051Z,29.26
2023-05-15T13:45:57.593Z,28.69
2023-05-15T13:47:02.040Z,28.41